createdAt,value
2018-08-17T00:00:37.776Z,1.70
2018-08-17T00:03:06.523Z,1.73
2018-08-17T00:05:35.375Z,1.80
2018-08-17T00:08:04.175Z,1.53
2018-08-17T00:10:32.947Z,1.80
2018-08-17T00:13:01.713Z,1.40
2018-08-17T00:15:30.458Z,1.77
2018-08-17T00:17:59.279Z,2.13
2018-08-17T00:20:28.057Z,2.63
2018-08-17T00:22:56.802Z,1.47
2018-08-17T00:25:25.584Z,2.07
2018-08-17T00:27:54.351Z,1.53
2018-08-17T00:30:23.199Z,1.97
2018-08-17T00:32:51.956Z,1.67
2018-08-17T00:35:20.745Z,1.93
2018-08-17T00:37:49.534Z,1.40
2018-08-17T00:40:18.278Z,1.50
2018-08-17T00:42:47.043Z,1.80
2018-08-17T00:45:15.801Z,1.57
2018-08-17T00:47:44.582Z,1.60
2018-08-17T00:50:13.379Z,1.47
2018-08-17T00:52:42.162Z,1.60
2018-08-17T00:55:10.976Z,1.90
2018-08-17T00:57:39.767Z,1.77
2018-08-17T01:00:08.518Z,1.03
2018-08-17T01:02:37.267Z,1.40
2018-08-17T01:05:06.183Z,1.47
2018-08-17T01:07:34.986Z,1.57
2018-08-17T01:10:03.796Z,1.30
2018-08-17T01:12:32.544Z,1.63
2018-08-17T01:15:01.312Z,1.40
2018-08-17T01:17:30.064Z,1.40
2018-08-17T01:19:58.844Z,1.37
2018-08-17T01:22:27.597Z,1.50
2018-08-17T01:24:56.371Z,1.30
2018-08-17T01:27:25.147Z,1.60
2018-08-17T01:29:53.887Z,1.37
2018-08-17T01:32:22.675Z,2.00
2018-08-17T01:34:51.456Z,1.50
2018-08-17T01:37:20.226Z,1.30
2018-08-17T01:39:48.980Z,1.67
2018-08-17T01:42:17.751Z,1.70
2018-08-17T01:44:46.485Z,1.50
2018-08-17T01:47:15.226Z,1.40
2018-08-17T01:49:43.975Z,1.20
2018-08-17T01:52:12.739Z,1.60
2018-08-17T01:54:41.487Z,1.40
2018-08-17T01:57:10.307Z,1.50
2018-08-17T01:59:39.051Z,1.50
2018-08-17T02:02:07.827Z,1.50
2018-08-17T02:04:36.609Z,1.70
2018-08-17T02:07:05.392Z,1.40
2018-08-17T02:09:34.180Z,1.30
2018-08-17T02:12:02.972Z,1.77
2018-08-17T02:14:31.734Z,1.47
2018-08-17T02:17:00.470Z,1.53
2018-08-17T02:19:29.253Z,1.70
2018-08-17T02:21:58.050Z,1.23
2018-08-17T02:24:26.853Z,2.30
2018-08-17T02:26:55.583Z,1.93
2018-08-17T02:29:24.344Z,2.03
2018-08-17T02:31:53.084Z,1.57
2018-08-17T02:34:21.880Z,1.70
2018-08-17T02:36:50.636Z,2.90
2018-08-17T02:39:19.379Z,1.60
2018-08-17T02:41:48.180Z,2.17
2018-08-17T02:44:17.110Z,1.53
2018-08-17T02:46:46.287Z,2.10
2018-08-17T02:49:15.145Z,1.77
2018-08-17T02:51:43.883Z,1.80
2018-08-17T02:54:12.637Z,2.57
2018-08-17T02:56:41.423Z,1.87
2018-08-17T02:59:10.482Z,1.80
2018-08-17T03:01:39.244Z,1.73
2018-08-17T03:04:08.020Z,1.70
2018-08-17T03:06:36.784Z,1.93
2018-08-17T03:09:06.731Z,2.10
2018-08-17T03:11:35.528Z,1.63
2018-08-17T03:14:04.650Z,1.90
2018-08-17T03:16:33.480Z,2.40
2018-08-17T03:19:02.235Z,1.40
2018-08-17T03:21:31.016Z,1.70
2018-08-17T03:23:59.783Z,1.50
2018-08-17T03:26:28.534Z,1.53
2018-08-17T03:28:57.290Z,1.10
2018-08-17T03:31:26.046Z,1.30
2018-08-17T03:33:54.846Z,1.60
2018-08-17T03:36:23.631Z,2.33
2018-08-17T03:38:52.378Z,1.83
2018-08-17T03:41:21.151Z,2.33
2018-08-17T03:43:49.891Z,1.77
2018-08-17T03:46:18.684Z,1.40
2018-08-17T03:48:47.427Z,1.83
2018-08-17T03:51:16.247Z,1.60
2018-08-17T03:53:44.994Z,1.67
2018-08-17T03:56:13.748Z,1.43
2018-08-17T03:58:42.531Z,2.13
2018-08-17T04:01:11.299Z,1.50
2018-08-17T04:03:40.392Z,1.70
2018-08-17T04:06:09.247Z,2.27
2018-08-17T04:08:38.034Z,1.40
2018-08-17T04:11:06.838Z,2.00
2018-08-17T04:13:35.626Z,1.13
2018-08-17T04:16:04.403Z,2.53
2018-08-17T04:18:33.191Z,1.73
2018-08-17T04:21:01.933Z,1.90
2018-08-17T04:23:30.791Z,2.00
2018-08-17T04:25:59.536Z,2.37
2018-08-17T04:28:28.275Z,1.70
2018-08-17T04:30:57.095Z,1.57
2018-08-17T04:33:25.879Z,2.03
2018-08-17T04:35:54.655Z,1.57
2018-08-17T04:38:23.431Z,2.00
2018-08-17T04:40:52.182Z,1.70
2018-08-17T04:43:20.959Z,1.90
2018-08-17T04:45:49.732Z,2.00
2018-08-17T04:48:18.498Z,1.87
2018-08-17T04:50:47.270Z,2.67
2018-08-17T04:53:16.015Z,2.00
2018-08-17T04:55:44.794Z,2.20
2018-08-17T04:58:13.944Z,2.57
2018-08-17T05:00:42.826Z,2.33
2018-08-17T05:03:11.599Z,2.03
2018-08-17T05:05:40.340Z,1.67
2018-08-17T05:08:09.101Z,1.90
2018-08-17T05:10:37.835Z,2.23
2018-08-17T05:13:06.743Z,1.97
2018-08-17T05:15:35.532Z,2.00
2018-08-17T05:18:04.286Z,2.50
2018-08-17T05:20:33.131Z,1.93
2018-08-17T05:23:01.908Z,2.67
2018-08-17T05:25:30.682Z,1.50
2018-08-17T05:27:59.424Z,1.60
2018-08-17T05:30:28.200Z,1.50
2018-08-17T05:32:56.975Z,1.77
2018-08-17T05:35:25.743Z,1.70
2018-08-17T05:37:54.530Z,1.93
2018-08-17T05:40:23.288Z,1.40
2018-08-17T05:42:52.043Z,1.33
2018-08-17T05:45:20.820Z,1.33
2018-08-17T05:47:49.583Z,1.50
2018-08-17T05:50:18.354Z,1.70
2018-08-17T05:52:47.107Z,1.47
2018-08-17T05:55:15.942Z,1.63
2018-08-17T05:57:44.747Z,1.33
2018-08-17T06:00:13.584Z,1.70
2018-08-17T06:02:42.530Z,2.53
2018-08-17T06:05:11.283Z,1.17
2018-08-17T06:07:40.035Z,1.57
2018-08-17T06:10:09.199Z,1.30
2018-08-17T06:12:38.067Z,1.47
2018-08-17T06:15:07.088Z,1.30
2018-08-17T06:17:35.919Z,1.83
2018-08-17T06:20:05.154Z,1.17
2018-08-17T06:22:33.940Z,1.10
2018-08-17T06:25:06.250Z,1.10
2018-08-17T06:27:35.003Z,1.20
2018-08-17T06:30:03.998Z,1.20
2018-08-17T06:32:32.782Z,0.90
2018-08-17T06:35:01.650Z,1.10
2018-08-17T06:37:30.427Z,1.17
2018-08-17T06:40:00.271Z,1.00
2018-08-17T06:42:29.192Z,1.10
2018-08-17T06:44:57.999Z,1.23
2018-08-17T06:47:26.786Z,1.17
2018-08-17T06:49:55.559Z,1.37
2018-08-17T06:52:24.350Z,1.33
2018-08-17T06:54:53.120Z,0.97
2018-08-17T06:57:22.060Z,1.13
2018-08-17T06:59:50.742Z,1.30
2018-08-17T07:02:19.507Z,1.57
2018-08-17T07:04:48.300Z,1.10
2018-08-17T07:07:17.110Z,0.90
2018-08-17T07:09:45.855Z,1.50
2018-08-17T07:12:14.627Z,1.60
2018-08-17T07:14:43.378Z,1.80
2018-08-17T07:17:12.147Z,1.93
2018-08-17T07:19:40.919Z,1.50
2018-08-17T07:22:09.679Z,1.73
2018-08-17T07:24:38.436Z,1.80
2018-08-17T07:27:07.487Z,1.70
2018-08-17T07:29:36.340Z,1.37
2018-08-17T07:32:05.154Z,1.90
2018-08-17T07:34:33.955Z,1.50
2018-08-17T07:37:02.702Z,2.27
2018-08-17T07:39:31.490Z,1.43
2018-08-17T07:42:00.303Z,1.23
2018-08-17T07:44:29.111Z,1.10
2018-08-17T07:46:57.911Z,1.40
2018-08-17T07:49:26.707Z,1.53
2018-08-17T07:51:55.443Z,1.47
2018-08-17T07:54:24.214Z,1.10
2018-08-17T07:56:53.383Z,1.27
2018-08-17T07:59:22.127Z,1.50
2018-08-17T08:01:50.908Z,1.10
2018-08-17T08:04:19.699Z,1.50
2018-08-17T08:06:48.467Z,1.37
2018-08-17T08:09:17.263Z,1.20
2018-08-17T08:11:46.019Z,1.10
2018-08-17T08:14:14.777Z,1.03
2018-08-17T08:16:43.527Z,0.97
2018-08-17T08:19:13.512Z,0.70
2018-08-17T08:21:46.907Z,1.20
2018-08-17T08:24:15.920Z,1.10
2018-08-17T08:26:44.871Z,0.90
2018-08-17T08:29:13.711Z,1.20
2018-08-17T08:31:42.484Z,1.30
2018-08-17T08:34:11.520Z,1.20
2018-08-17T08:36:40.298Z,0.90
2018-08-17T08:39:11.094Z,1.00
2018-08-17T08:41:39.922Z,1.00
2018-08-17T08:44:08.672Z,0.80
2018-08-17T08:46:37.775Z,1.23
2018-08-17T08:49:06.711Z,0.70
2018-08-17T08:51:35.564Z,1.03
2018-08-17T08:54:04.348Z,0.97
2018-08-17T08:56:33.116Z,0.93
2018-08-17T08:59:01.967Z,0.90
2018-08-17T09:01:30.758Z,1.03
2018-08-17T09:03:59.479Z,1.30
2018-08-17T09:06:28.266Z,1.33
2018-08-17T09:08:57.002Z,1.23
2018-08-17T09:11:25.807Z,1.20
2018-08-17T09:13:54.604Z,0.97
2018-08-17T09:16:23.421Z,1.37
2018-08-17T09:18:52.176Z,1.23
2018-08-17T09:21:20.934Z,1.17
2018-08-17T09:23:49.723Z,1.33
2018-08-17T09:26:18.554Z,1.40
2018-08-17T09:28:47.494Z,1.20
2018-08-17T09:31:16.231Z,1.07
2018-08-17T09:33:45.002Z,1.30
2018-08-17T09:36:13.800Z,1.33
2018-08-17T09:38:42.590Z,1.20
2018-08-17T09:41:11.388Z,1.10
2018-08-17T09:43:40.155Z,1.10
2018-08-17T09:46:08.967Z,1.60
2018-08-17T09:48:37.757Z,1.03
2018-08-17T09:51:06.495Z,1.50
2018-08-17T09:53:35.248Z,1.40
2018-08-17T09:56:04.020Z,1.00
2018-08-17T09:58:32.766Z,0.80
2018-08-17T10:01:06.981Z,1.13
2018-08-17T10:03:41.360Z,0.93
2018-08-17T10:06:15.933Z,1.00
2018-08-17T10:08:50.014Z,0.98
2018-08-17T10:11:18.828Z,1.02
2018-08-17T10:13:47.563Z,1.20
2018-08-17T10:16:16.306Z,1.05
2018-08-17T10:18:45.650Z,1.12
2018-08-17T10:21:15.588Z,0.60
2018-08-17T10:23:44.194Z,0.73
2018-08-17T10:26:12.964Z,1.00
2018-08-17T10:28:41.710Z,0.97
2018-08-17T10:31:10.507Z,0.70
2018-08-17T10:33:39.263Z,0.80
2018-08-17T10:36:08.035Z,1.00
2018-08-17T10:38:36.780Z,1.67
2018-08-17T10:41:05.565Z,0.80
2018-08-17T10:43:34.318Z,1.00
2018-08-17T10:46:03.086Z,0.97
2018-08-17T10:48:31.870Z,0.70
2018-08-17T10:51:00.623Z,1.00
2018-08-17T10:53:34.065Z,0.93
2018-08-17T10:56:02.815Z,0.60
2018-08-17T10:58:33.502Z,0.93
2018-08-17T11:01:02.269Z,0.70
2018-08-17T11:03:31.064Z,1.00
2018-08-17T11:05:59.831Z,1.10
2018-08-17T11:08:28.607Z,0.83
2018-08-17T11:10:57.832Z,0.83
2018-08-17T11:13:26.736Z,0.80
2018-08-17T11:15:55.479Z,0.90
2018-08-17T11:18:24.272Z,0.80
2018-08-17T11:20:53.507Z,0.87
2018-08-17T11:23:22.517Z,0.87
2018-08-17T11:25:52.592Z,1.87
2018-08-17T11:28:21.367Z,0.83
2018-08-17T11:30:50.120Z,0.70
2018-08-17T11:33:23.147Z,0.60
2018-08-17T11:35:52.087Z,0.90
2018-08-17T11:38:20.843Z,0.87
2018-08-17T11:40:49.643Z,1.20
2018-08-17T11:43:18.479Z,0.90
2018-08-17T11:45:47.359Z,0.70
2018-08-17T11:48:24.855Z,0.75
2018-08-17T11:50:53.889Z,0.70
2018-08-17T11:53:22.695Z,0.70
2018-08-17T11:55:51.476Z,1.37
2018-08-17T11:58:20.209Z,0.90
2018-08-17T12:00:48.967Z,0.90
2018-08-17T12:03:17.808Z,1.10
2018-08-17T12:05:46.555Z,0.87
2018-08-17T12:08:15.403Z,0.75
2018-08-17T12:10:46.906Z,0.83
2018-08-17T12:13:18.379Z,1.10
2018-08-17T12:15:52.481Z,1.13
2018-08-17T12:18:21.273Z,1.20
2018-08-17T12:20:50.023Z,0.80
2018-08-17T12:23:18.853Z,0.90
2018-08-17T12:25:52.911Z,0.88
2018-08-17T12:28:21.702Z,0.95
2018-08-17T12:30:50.847Z,1.10
2018-08-17T12:33:19.731Z,1.00
2018-08-17T12:35:48.517Z,1.00
2018-08-17T12:38:18.165Z,0.80
2018-08-17T12:40:49.340Z,0.57
2018-08-17T12:43:19.420Z,1.50
2018-08-17T12:45:48.147Z,0.77
2018-08-17T12:48:17.468Z,1.30
2018-08-17T12:50:46.343Z,1.20
2018-08-17T12:53:15.215Z,0.70
2018-08-17T12:55:44.303Z,1.10
2018-08-17T12:58:13.758Z,1.30
2018-08-17T13:00:42.575Z,1.17
2018-08-17T13:03:11.359Z,1.00
2018-08-17T13:05:40.136Z,0.70
2018-08-17T13:08:09.113Z,0.97
2018-08-17T13:10:38.020Z,1.27
2018-08-17T13:13:07.860Z,1.37
2018-08-17T13:15:37.156Z,0.60
2018-08-17T13:18:13.189Z,0.87
2018-08-17T13:20:41.952Z,0.90
2018-08-17T13:23:10.788Z,0.70
2018-08-17T13:25:39.890Z,1.10
2018-08-17T13:28:08.728Z,1.07
2018-08-17T13:30:37.461Z,1.63
2018-08-17T13:33:06.223Z,0.77
2018-08-17T13:35:35.026Z,0.93
2018-08-17T13:38:03.807Z,1.10
2018-08-17T13:40:32.597Z,0.80
2018-08-17T13:43:01.400Z,2.30
2018-08-17T13:45:30.168Z,0.70
2018-08-17T13:47:58.936Z,0.77
2018-08-17T13:50:27.691Z,0.87
2018-08-17T13:52:56.476Z,1.10
2018-08-17T13:55:25.337Z,0.73
2018-08-17T13:57:54.064Z,1.00
2018-08-17T14:00:22.855Z,1.00
2018-08-17T14:02:51.676Z,1.20
2018-08-17T14:05:20.438Z,0.93
2018-08-17T14:07:49.215Z,1.23
2018-08-17T14:10:18.015Z,0.90
2018-08-17T14:12:46.836Z,0.97
2018-08-17T14:15:15.620Z,1.47
2018-08-17T14:17:44.419Z,1.20
2018-08-17T14:20:14.505Z,1.10
2018-08-17T14:22:43.348Z,0.80
2018-08-17T14:25:12.499Z,1.23
2018-08-17T14:27:41.510Z,1.03
2018-08-17T14:30:12.946Z,1.20
2018-08-17T14:32:41.943Z,0.97
2018-08-17T14:35:10.723Z,1.17
2018-08-17T14:37:39.494Z,0.90
2018-08-17T14:40:08.901Z,1.40
2018-08-17T14:42:37.687Z,0.80
2018-08-17T14:45:06.910Z,0.90
2018-08-17T14:47:35.691Z,0.90
2018-08-17T14:50:05.771Z,0.80
2018-08-17T14:52:34.546Z,0.87
2018-08-17T14:55:03.360Z,1.20
2018-08-17T14:57:32.114Z,1.10
2018-08-17T15:00:00.895Z,0.80
2018-08-17T15:02:29.683Z,1.00
2018-08-17T15:04:58.439Z,0.80
2018-08-17T15:07:27.235Z,1.27
2018-08-17T15:09:56.048Z,0.80
2018-08-17T15:12:24.799Z,1.03
2018-08-17T15:14:53.650Z,1.47
2018-08-17T15:17:22.450Z,1.00
2018-08-17T15:19:51.217Z,1.20
2018-08-17T15:22:20.030Z,1.20
2018-08-17T15:24:48.809Z,0.90
2018-08-17T15:27:17.578Z,1.07
2018-08-17T15:29:46.358Z,1.20
2018-08-17T15:32:15.127Z,1.10
2018-08-17T15:34:43.899Z,1.20
2018-08-17T15:37:12.640Z,1.00
2018-08-17T15:39:41.382Z,0.83
2018-08-17T15:42:10.163Z,1.53
2018-08-17T15:44:38.906Z,1.10
2018-08-17T15:47:07.707Z,1.10
2018-08-17T15:49:36.923Z,0.77
2018-08-17T15:52:06.579Z,0.97
2018-08-17T15:54:35.623Z,0.93
2018-08-17T15:57:04.380Z,0.73
2018-08-17T15:59:33.169Z,1.40
2018-08-17T16:02:02.038Z,1.17
2018-08-17T16:04:30.883Z,1.10
2018-08-17T16:06:59.602Z,1.00
2018-08-17T16:09:28.364Z,1.20
2018-08-17T16:11:57.174Z,0.90
2018-08-17T16:14:26.003Z,1.00
2018-08-17T16:16:54.751Z,1.30
2018-08-17T16:19:23.512Z,1.20
2018-08-17T16:21:52.243Z,1.40
2018-08-17T16:24:21.058Z,1.70
2018-08-17T16:26:49.857Z,1.57
2018-08-17T16:29:18.677Z,1.57
2018-08-17T16:31:47.554Z,1.20
2018-08-17T16:34:16.299Z,1.40
2018-08-17T16:36:45.106Z,1.50
2018-08-17T16:39:14.943Z,1.37
2018-08-17T16:41:43.739Z,1.20
2018-08-17T16:44:13.180Z,1.40
2018-08-17T16:46:42.829Z,1.70
2018-08-17T16:49:11.809Z,1.53
2018-08-17T16:51:40.759Z,1.23
2018-08-17T16:54:09.563Z,1.23
2018-08-17T16:56:38.311Z,1.47
2018-08-17T16:59:07.262Z,1.03
2018-08-17T17:01:35.905Z,2.50
2018-08-17T17:04:04.804Z,0.97
2018-08-17T17:06:33.645Z,1.10
2018-08-17T17:09:05.086Z,1.27
2018-08-17T17:11:34.243Z,1.13
2018-08-17T17:14:03.083Z,0.73
2018-08-17T17:16:37.552Z,1.20
2018-08-17T17:19:09.220Z,0.90
2018-08-17T17:21:40.543Z,1.27
2018-08-17T17:24:09.576Z,1.93
2018-08-17T17:26:38.365Z,0.87
2018-08-17T17:29:07.340Z,2.33
2018-08-17T17:31:36.253Z,1.37
2018-08-17T17:34:05.020Z,1.20
2018-08-17T17:36:33.797Z,0.80
2018-08-17T17:39:02.799Z,1.00
2018-08-17T17:41:31.546Z,1.30
2018-08-17T17:44:00.306Z,0.80
2018-08-17T17:46:29.131Z,1.03
2018-08-17T17:48:57.869Z,2.17
2018-08-17T17:51:26.621Z,1.10
2018-08-17T17:53:55.383Z,0.93
2018-08-17T17:56:24.170Z,1.17
2018-08-17T17:58:55.747Z,1.20
2018-08-17T18:01:31.038Z,1.30
2018-08-17T18:03:59.960Z,1.13
2018-08-17T18:06:28.700Z,1.23
2018-08-17T18:08:58.843Z,1.00
2018-08-17T18:11:27.609Z,1.67
2018-08-17T18:13:56.363Z,1.30
2018-08-17T18:16:25.190Z,1.00
2018-08-17T18:18:55.002Z,1.07
2018-08-17T18:21:28.397Z,1.10
2018-08-17T18:24:01.515Z,1.00
2018-08-17T18:26:30.351Z,1.27
2018-08-17T18:28:59.382Z,1.30
2018-08-17T18:31:28.194Z,1.40
2018-08-17T18:33:57.057Z,1.20
2018-08-17T18:36:25.881Z,1.20
2018-08-17T18:38:54.814Z,1.90
2018-08-17T18:41:23.590Z,1.10
2018-08-17T18:43:52.362Z,0.90
2018-08-17T18:46:21.272Z,1.67
2018-08-17T18:48:50.024Z,1.13
2018-08-17T18:51:18.880Z,2.10
2018-08-17T18:53:47.677Z,1.40
2018-08-17T18:56:16.508Z,1.50
2018-08-17T18:58:45.315Z,1.70
2018-08-17T19:01:14.084Z,1.90
2018-08-17T19:03:43.616Z,1.80
2018-08-17T19:06:12.402Z,1.63
2018-08-17T19:08:41.191Z,1.50
2018-08-17T19:11:10.017Z,1.80
2018-08-17T19:13:38.831Z,1.63
2018-08-17T19:16:07.704Z,2.77
2018-08-17T19:18:36.783Z,2.63
2018-08-17T19:21:10.086Z,1.50
2018-08-17T19:23:38.881Z,1.93
2018-08-17T19:26:08.495Z,1.80
2018-08-17T19:28:37.262Z,1.60
2018-08-17T19:31:06.094Z,2.80
2018-08-17T19:33:34.843Z,2.03
2018-08-17T19:36:04.129Z,1.83
2018-08-17T19:38:36.051Z,1.83
2018-08-17T19:41:04.945Z,1.93
2018-08-17T19:43:33.738Z,1.90
2018-08-17T19:46:02.809Z,1.47
2018-08-17T19:48:31.547Z,1.40
2018-08-17T19:51:00.351Z,1.77
2018-08-17T19:53:29.545Z,1.70
2018-08-17T19:55:58.296Z,1.57
2018-08-17T19:58:27.104Z,2.20
2018-08-17T20:00:55.878Z,1.67
2018-08-17T20:03:24.604Z,1.50
2018-08-17T20:05:53.350Z,1.90
2018-08-17T20:08:22.167Z,1.73
2018-08-17T20:10:50.995Z,1.57
2018-08-17T20:13:19.782Z,1.33
2018-08-17T20:15:48.547Z,1.77
2018-08-17T20:18:17.327Z,1.63
2018-08-17T20:20:46.163Z,1.73
2018-08-17T20:23:14.978Z,1.63
2018-08-17T20:25:43.842Z,2.33
2018-08-17T20:28:12.522Z,2.13
2018-08-17T20:30:41.291Z,1.93
2018-08-17T20:33:10.691Z,2.00
2018-08-17T20:35:39.495Z,2.00
2018-08-17T20:38:08.279Z,2.60
2018-08-17T20:40:37.074Z,2.00
2018-08-17T20:43:06.026Z,2.33
2018-08-17T20:45:34.823Z,1.57
2018-08-17T20:48:03.604Z,1.77
2018-08-17T20:50:32.383Z,1.83
2018-08-17T20:53:01.147Z,2.10
2018-08-17T20:55:29.921Z,1.93
2018-08-17T20:57:59.143Z,1.87
2018-08-17T21:00:28.554Z,2.93
2018-08-17T21:02:57.343Z,2.00
2018-08-17T21:05:26.149Z,2.90
2018-08-17T21:07:54.969Z,1.60
2018-08-17T21:10:23.763Z,2.10
2018-08-17T21:12:52.558Z,2.40
2018-08-17T21:15:21.386Z,2.27
2018-08-17T21:17:50.168Z,2.13
2018-08-17T21:20:18.915Z,3.33
2018-08-17T21:22:47.694Z,1.93
2018-08-17T21:25:16.427Z,2.67
2018-08-17T21:27:45.218Z,2.80
2018-08-17T21:30:13.995Z,2.17
2018-08-17T21:32:42.837Z,2.70
2018-08-17T21:35:11.605Z,2.20
2018-08-17T21:37:40.391Z,2.50
2018-08-17T21:40:14.108Z,2.20
2018-08-17T21:42:42.937Z,2.97
2018-08-17T21:45:11.785Z,2.30
2018-08-17T21:47:40.565Z,2.50
2018-08-17T21:50:15.567Z,2.20
2018-08-17T21:52:45.007Z,3.27
2018-08-17T21:55:14.231Z,2.17
2018-08-17T21:57:43.338Z,2.73
2018-08-17T22:00:18.499Z,3.27
2018-08-17T22:02:47.295Z,3.70
2018-08-17T22:05:23.288Z,2.03
2018-08-17T22:07:52.051Z,1.80
2018-08-17T22:10:20.839Z,2.97
2018-08-17T22:12:49.594Z,2.40
2018-08-17T22:15:18.415Z,3.03
2018-08-17T22:17:47.179Z,2.20
2018-08-17T22:20:15.931Z,2.60
2018-08-17T22:22:44.687Z,3.20
2018-08-17T22:25:15.035Z,2.67
2018-08-17T22:27:43.837Z,2.60
2018-08-17T22:30:18.361Z,2.87
2018-08-17T22:32:47.090Z,2.13
2018-08-17T22:35:15.953Z,3.67
2018-08-17T22:37:44.658Z,1.93
2018-08-17T22:40:13.530Z,2.17
2018-08-17T22:42:42.396Z,2.50
2018-08-17T22:45:11.131Z,2.57
2018-08-17T22:47:39.874Z,2.13
2018-08-17T22:50:08.707Z,2.43
2018-08-17T22:52:37.498Z,2.50
2018-08-17T22:55:07.616Z,2.50
2018-08-17T22:57:36.469Z,2.60
2018-08-17T23:00:16.500Z,2.53
2018-08-17T23:02:46.162Z,2.63
2018-08-17T23:05:16.592Z,2.87
2018-08-17T23:07:45.417Z,2.33
2018-08-17T23:10:16.922Z,2.30
2018-08-17T23:12:46.694Z,2.37
2018-08-17T23:15:15.480Z,2.60
2018-08-17T23:17:48.895Z,2.30
2018-08-17T23:20:21.964Z,2.10
2018-08-17T23:22:51.839Z,3.20
2018-08-17T23:25:20.598Z,2.77
2018-08-17T23:27:50.020Z,2.67
2018-08-17T23:30:18.883Z,2.17
2018-08-17T23:32:48.062Z,2.27
2018-08-17T23:35:16.848Z,2.47
2018-08-17T23:37:45.623Z,2.23
2018-08-17T23:40:14.404Z,2.37
2018-08-17T23:42:43.743Z,2.90
2018-08-17T23:45:13.979Z,2.90
2018-08-17T23:47:42.936Z,2.77
2018-08-17T23:50:12.819Z,2.40
2018-08-17T23:52:41.780Z,3.67
2018-08-17T23:55:11.284Z,2.20
2018-08-17T23:57:40.045Z,2.33
